sensor_id;sensor_type;location;lat;lon;timestamp;P1;durP1;ratioP1;P2;durP2;ratioP2
12267;SDS011;6196;48.398;11.736;2022-07-10T00:00:44;3.97;;;3.67;;
12267;SDS011;6196;48.398;11.736;2022-07-10T00:03:11;4.80;;;3.50;;
12267;SDS011;6196;48.398;11.736;2022-07-10T00:05:38;4.40;;;4.07;;
12267;SDS011;6196;48.398;11.736;2022-07-10T00:08:05;4.50;;;4.10;;
12267;SDS011;6196;48.398;11.736;2022-07-10T00:10:32;4.97;;;3.87;;
12267;SDS011;6196;48.398;11.736;2022-07-10T00:12:59;4.90;;;3.97;;
12267;SDS011;6196;48.398;11.736;2022-07-10T00:15:26;4.83;;;4.10;;
12267;SDS011;6196;48.398;11.736;2022-07-10T00:17:53;5.17;;;4.30;;
12267;SDS011;6196;48.398;11.736;2022-07-10T00:20:20;4.73;;;4.00;;
12267;SDS011;6196;48.398;11.736;2022-07-10T00:22:47;5.47;;;4.33;;
12267;SDS011;6196;48.398;11.736;2022-07-10T00:25:14;5.10;;;4.60;;
12267;SDS011;6196;48.398;11.736;2022-07-10T00:27:42;5.37;;;4.40;;
12267;SDS011;6196;48.398;11.736;2022-07-10T00:30:09;5.43;;;5.03;;
12267;SDS011;6196;48.398;11.736;2022-07-10T00:32:37;7.43;;;4.43;;
12267;SDS011;6196;48.398;11.736;2022-07-10T00:35:04;4.93;;;4.40;;
12267;SDS011;6196;48.398;11.736;2022-07-10T00:37:32;4.63;;;4.23;;
12267;SDS011;6196;48.398;11.736;2022-07-10T00:39:59;5.20;;;4.80;;
12267;SDS011;6196;48.398;11.736;2022-07-10T00:42:26;5.27;;;4.77;;
12267;SDS011;6196;48.398;11.736;2022-07-10T00:44:53;5.47;;;5.00;;
12267;SDS011;6196;48.398;11.736;2022-07-10T00:47:20;5.00;;;4.50;;
12267;SDS011;6196;48.398;11.736;2022-07-10T00:49:48;5.37;;;4.60;;
12267;SDS011;6196;48.398;11.736;2022-07-10T00:52:16;5.07;;;4.57;;
12267;SDS011;6196;48.398;11.736;2022-07-10T00:54:44;5.10;;;4.70;;
12267;SDS011;6196;48.398;11.736;2022-07-10T00:57:14;5.73;;;4.97;;
12267;SDS011;6196;48.398;11.736;2022-07-10T00:59:41;5.10;;;4.70;;
12267;SDS011;6196;48.398;11.736;2022-07-10T01:02:10;5.40;;;5.00;;
12267;SDS011;6196;48.398;11.736;2022-07-10T01:04:37;5.53;;;5.00;;
12267;SDS011;6196;48.398;11.736;2022-07-10T01:07:05;5.57;;;5.07;;
12267;SDS011;6196;48.398;11.736;2022-07-10T01:09:32;5.70;;;5.20;;
12267;SDS011;6196;48.398;11.736;2022-07-10T01:12:00;5.03;;;4.60;;
12267;SDS011;6196;48.398;11.736;2022-07-10T01:14:29;5.80;;;5.20;;
12267;SDS011;6196;48.398;11.736;2022-07-10T01:16:57;5.30;;;4.87;;
12267;SDS011;6196;48.398;11.736;2022-07-10T01:19:25;7.43;;;5.47;;
12267;SDS011;6196;48.398;11.736;2022-07-10T01:21:52;5.37;;;4.87;;
12267;SDS011;6196;48.398;11.736;2022-07-10T01:24:19;5.20;;;4.73;;
12267;SDS011;6196;48.398;11.736;2022-07-10T01:26:46;6.00;;;5.40;;
12267;SDS011;6196;48.398;11.736;2022-07-10T01:29:14;5.67;;;5.17;;
12267;SDS011;6196;48.398;11.736;2022-07-10T01:31:41;5.53;;;5.10;;
12267;SDS011;6196;48.398;11.736;2022-07-10T01:34:08;6.20;;;5.80;;
12267;SDS011;6196;48.398;11.736;2022-07-10T01:36:36;5.57;;;5.07;;
12267;SDS011;6196;48.398;11.736;2022-07-10T01:39:04;5.73;;;5.20;;
12267;SDS011;6196;48.398;11.736;2022-07-10T01:41:32;6.67;;;6.07;;
12267;SDS011;6196;48.398;11.736;2022-07-10T01:44:00;6.30;;;5.70;;
12267;SDS011;6196;48.398;11.736;2022-07-10T01:46:27;6.27;;;5.67;;
12267;SDS011;6196;48.398;11.736;2022-07-10T01:48:55;6.27;;;5.67;;
12267;SDS011;6196;48.398;11.736;2022-07-10T01:51:23;5.97;;;5.50;;
12267;SDS011;6196;48.398;11.736;2022-07-10T01:53:50;6.37;;;5.80;;
12267;SDS011;6196;48.398;11.736;2022-07-10T01:56:16;7.57;;;6.57;;
12267;SDS011;6196;48.398;11.736;2022-07-10T01:58:43;6.30;;;5.80;;
12267;SDS011;6196;48.398;11.736;2022-07-10T02:01:10;7.07;;;6.40;;
12267;SDS011;6196;48.398;11.736;2022-07-10T02:03:38;6.33;;;5.80;;
12267;SDS011;6196;48.398;11.736;2022-07-10T02:06:24;6.73;;;6.13;;
12267;SDS011;6196;48.398;11.736;2022-07-10T02:08:51;6.80;;;6.13;;
12267;SDS011;6196;48.398;11.736;2022-07-10T02:11:18;7.17;;;6.50;;
12267;SDS011;6196;48.398;11.736;2022-07-10T02:13:45;7.27;;;6.60;;
12267;SDS011;6196;48.398;11.736;2022-07-10T02:16:12;7.10;;;6.40;;
12267;SDS011;6196;48.398;11.736;2022-07-10T02:18:39;7.20;;;5.97;;
12267;SDS011;6196;48.398;11.736;2022-07-10T02:21:07;7.40;;;6.80;;
12267;SDS011;6196;48.398;11.736;2022-07-10T02:23:35;6.40;;;5.87;;
12267;SDS011;6196;48.398;11.736;2022-07-10T02:26:02;7.60;;;6.90;;
12267;SDS011;6196;48.398;11.736;2022-07-10T02:28:29;6.63;;;6.10;;
12267;SDS011;6196;48.398;11.736;2022-07-10T02:30:56;6.70;;;6.10;;
12267;SDS011;6196;48.398;11.736;2022-07-10T02:33:23;6.80;;;6.20;;
12267;SDS011;6196;48.398;11.736;2022-07-10T02:35:51;6.50;;;5.90;;
12267;SDS011;6196;48.398;11.736;2022-07-10T02:38:18;7.37;;;6.47;;
12267;SDS011;6196;48.398;11.736;2022-07-10T02:40:45;6.70;;;6.10;;
12267;SDS011;6196;48.398;11.736;2022-07-10T02:43:12;6.93;;;6.33;;
12267;SDS011;6196;48.398;11.736;2022-07-10T02:45:39;8.17;;;5.73;;
12267;SDS011;6196;48.398;11.736;2022-07-10T02:48:11;6.33;;;5.83;;
12267;SDS011;6196;48.398;11.736;2022-07-10T02:50:40;5.80;;;5.23;;
12267;SDS011;6196;48.398;11.736;2022-07-10T02:53:07;6.03;;;5.53;;
12267;SDS011;6196;48.398;11.736;2022-07-10T02:55:34;6.17;;;5.67;;
12267;SDS011;6196;48.398;11.736;2022-07-10T02:58:01;6.10;;;5.60;;
12267;SDS011;6196;48.398;11.736;2022-07-10T03:00:29;5.50;;;5.10;;
12267;SDS011;6196;48.398;11.736;2022-07-10T03:02:56;5.80;;;5.30;;
12267;SDS011;6196;48.398;11.736;2022-07-10T03:05:23;5.77;;;5.20;;
12267;SDS011;6196;48.398;11.736;2022-07-10T03:07:50;5.60;;;5.20;;
12267;SDS011;6196;48.398;11.736;2022-07-10T03:10:17;5.33;;;4.93;;
12267;SDS011;6196;48.398;11.736;2022-07-10T03:12:44;6.00;;;5.50;;
12267;SDS011;6196;48.398;11.736;2022-07-10T03:15:11;5.77;;;5.17;;
12267;SDS011;6196;48.398;11.736;2022-07-10T03:17:39;5.80;;;5.20;;
12267;SDS011;6196;48.398;11.736;2022-07-10T03:20:06;5.70;;;5.20;;
12267;SDS011;6196;48.398;11.736;2022-07-10T03:22:35;5.70;;;5.30;;
12267;SDS011;6196;48.398;11.736;2022-07-10T03:25:03;5.10;;;4.70;;
12267;SDS011;6196;48.398;11.736;2022-07-10T03:27:30;6.27;;;5.67;;
12267;SDS011;6196;48.398;11.736;2022-07-10T03:29:57;5.63;;;5.17;;
12267;SDS011;6196;48.398;11.736;2022-07-10T03:32:24;5.53;;;5.10;;
12267;SDS011;6196;48.398;11.736;2022-07-10T03:34:51;6.07;;;5.57;;
12267;SDS011;6196;48.398;11.736;2022-07-10T03:37:18;5.83;;;5.40;;
12267;SDS011;6196;48.398;11.736;2022-07-10T03:39:45;6.13;;;5.60;;
12267;SDS011;6196;48.398;11.736;2022-07-10T03:42:12;6.33;;;5.80;;
12267;SDS011;6196;48.398;11.736;2022-07-10T03:44:39;5.97;;;5.47;;
12267;SDS011;6196;48.398;11.736;2022-07-10T03:47:06;6.17;;;5.67;;
12267;SDS011;6196;48.398;11.736;2022-07-10T03:49:33;6.00;;;5.40;;
12267;SDS011;6196;48.398;11.736;2022-07-10T03:52:01;6.10;;;5.60;;
12267;SDS011;6196;48.398;11.736;2022-07-10T03:54:29;6.87;;;6.07;;
12267;SDS011;6196;48.398;11.736;2022-07-10T03:56:56;5.77;;;5.27;;
12267;SDS011;6196;48.398;11.736;2022-07-10T03:59:42;6.23;;;5.73;;
12267;SDS011;6196;48.398;11.736;2022-07-10T04:02:10;6.03;;;5.53;;
12267;SDS011;6196;48.398;11.736;2022-07-10T04:04:37;6.17;;;5.67;;
12267;SDS011;6196;48.398;11.736;2022-07-10T04:07:04;6.17;;;5.67;;
12267;SDS011;6196;48.398;11.736;2022-07-10T04:09:32;6.60;;;6.00;;
12267;SDS011;6196;48.398;11.736;2022-07-10T04:11:58;6.90;;;5.67;;
12267;SDS011;6196;48.398;11.736;2022-07-10T04:14:25;6.60;;;6.10;;
12267;SDS011;6196;48.398;11.736;2022-07-10T04:16:52;8.90;;;8.00;;
12267;SDS011;6196;48.398;11.736;2022-07-10T04:19:19;7.90;;;7.20;;
12267;SDS011;6196;48.398;11.736;2022-07-10T04:21:47;9.43;;;8.33;;
12267;SDS011;6196;48.398;11.736;2022-07-10T04:24:15;8.50;;;7.70;;
12267;SDS011;6196;48.398;11.736;2022-07-10T04:26:42;9.23;;;7.57;;
12267;SDS011;6196;48.398;11.736;2022-07-10T04:29:10;9.03;;;8.23;;
12267;SDS011;6196;48.398;11.736;2022-07-10T04:31:37;9.53;;;8.53;;
12267;SDS011;6196;48.398;11.736;2022-07-10T04:34:04;9.33;;;8.53;;
12267;SDS011;6196;48.398;11.736;2022-07-10T04:36:31;9.60;;;8.70;;
12267;SDS011;6196;48.398;11.736;2022-07-10T04:38:57;9.87;;;8.97;;
12267;SDS011;6196;48.398;11.736;2022-07-10T04:41:24;10.23;;;9.33;;
12267;SDS011;6196;48.398;11.736;2022-07-10T04:43:51;10.00;;;9.10;;
12267;SDS011;6196;48.398;11.736;2022-07-10T04:46:18;10.23;;;9.23;;
12267;SDS011;6196;48.398;11.736;2022-07-10T04:48:45;9.87;;;8.97;;
12267;SDS011;6196;48.398;11.736;2022-07-10T04:51:12;9.87;;;8.97;;
12267;SDS011;6196;48.398;11.736;2022-07-10T04:53:39;9.60;;;8.73;;
12267;SDS011;6196;48.398;11.736;2022-07-10T04:56:06;9.70;;;8.80;;
12267;SDS011;6196;48.398;11.736;2022-07-10T04:58:33;9.50;;;8.60;;
12267;SDS011;6196;48.398;11.736;2022-07-10T05:01:00;9.00;;;8.20;;
12267;SDS011;6196;48.398;11.736;2022-07-10T05:03:28;10.17;;;9.27;;
12267;SDS011;6196;48.398;11.736;2022-07-10T05:05:55;9.77;;;8.97;;
12267;SDS011;6196;48.398;11.736;2022-07-10T05:08:22;9.47;;;8.67;;
12267;SDS011;6196;48.398;11.736;2022-07-10T05:10:49;10.23;;;9.20;;
12267;SDS011;6196;48.398;11.736;2022-07-10T05:13:16;10.43;;;9.53;;
12267;SDS011;6196;48.398;11.736;2022-07-10T05:15:44;10.40;;;9.50;;
12267;SDS011;6196;48.398;11.736;2022-07-10T05:18:13;9.97;;;9.17;;
12267;SDS011;6196;48.398;11.736;2022-07-10T05:20:40;10.07;;;9.23;;
12267;SDS011;6196;48.398;11.736;2022-07-10T05:23:09;10.13;;;9.13;;
12267;SDS011;6196;48.398;11.736;2022-07-10T05:25:37;11.37;;;9.80;;
12267;SDS011;6196;48.398;11.736;2022-07-10T05:28:04;10.73;;;9.83;;
12267;SDS011;6196;48.398;11.736;2022-07-10T05:30:32;10.33;;;9.43;;
12267;SDS011;6196;48.398;11.736;2022-07-10T05:32:59;10.23;;;9.33;;
12267;SDS011;6196;48.398;11.736;2022-07-10T05:35:26;11.53;;;10.43;;
12267;SDS011;6196;48.398;11.736;2022-07-10T05:37:53;11.50;;;10.33;;
12267;SDS011;6196;48.398;11.736;2022-07-10T05:40:20;11.33;;;10.43;;
12267;SDS011;6196;48.398;11.736;2022-07-10T05:42:48;11.43;;;10.50;;
12267;SDS011;6196;48.398;11.736;2022-07-10T05:45:14;12.17;;;10.93;;
12267;SDS011;6196;48.398;11.736;2022-07-10T05:47:41;10.87;;;9.93;;
12267;SDS011;6196;48.398;11.736;2022-07-10T05:50:08;11.07;;;10.03;;
12267;SDS011;6196;48.398;11.736;2022-07-10T05:52:35;11.77;;;10.77;;
12267;SDS011;6196;48.398;11.736;2022-07-10T05:55:03;10.90;;;10.00;;
12267;SDS011;6196;48.398;11.736;2022-07-10T05:57:31;11.47;;;10.57;;
12267;SDS011;6196;48.398;11.736;2022-07-10T05:59:58;10.67;;;9.77;;
12267;SDS011;6196;48.398;11.736;2022-07-10T06:02:25;11.10;;;10.10;;
12267;SDS011;6196;48.398;11.736;2022-07-10T06:04:52;10.30;;;9.50;;
12267;SDS011;6196;48.398;11.736;2022-07-10T06:07:19;11.20;;;10.20;;
12267;SDS011;6196;48.398;11.736;2022-07-10T06:09:46;10.90;;;10.07;;
12267;SDS011;6196;48.398;11.736;2022-07-10T06:12:13;11.27;;;10.30;;
12267;SDS011;6196;48.398;11.736;2022-07-10T06:14:41;10.83;;;9.77;;
12267;SDS011;6196;48.398;11.736;2022-07-10T06:17:08;10.47;;;9.63;;
12267;SDS011;6196;48.398;11.736;2022-07-10T06:19:35;11.00;;;10.10;;
12267;SDS011;6196;48.398;11.736;2022-07-10T06:22:02;10.30;;;9.40;;
12267;SDS011;6196;48.398;11.736;2022-07-10T06:24:48;9.07;;;8.27;;
12267;SDS011;6196;48.398;11.736;2022-07-10T06:27:15;9.93;;;9.00;;
12267;SDS011;6196;48.398;11.736;2022-07-10T06:29:42;9.63;;;8.83;;
12267;SDS011;6196;48.398;11.736;2022-07-10T06:32:09;8.90;;;8.07;;
12267;SDS011;6196;48.398;11.736;2022-07-10T06:34:37;9.87;;;8.80;;
12267;SDS011;6196;48.398;11.736;2022-07-10T06:37:04;8.93;;;8.23;;
12267;SDS011;6196;48.398;11.736;2022-07-10T06:39:32;9.97;;;9.17;;
12267;SDS011;6196;48.398;11.736;2022-07-10T06:42:04;8.83;;;8.13;;
12267;SDS011;6196;48.398;11.736;2022-07-10T06:44:32;8.97;;;8.10;;
12267;SDS011;6196;48.398;11.736;2022-07-10T06:46:59;9.80;;;8.90;;
12267;SDS011;6196;48.398;11.736;2022-07-10T06:49:46;9.27;;;8.53;;
12267;SDS011;6196;48.398;11.736;2022-07-10T06:52:14;9.70;;;8.97;;
12267;SDS011;6196;48.398;11.736;2022-07-10T06:54:42;9.70;;;8.90;;
12267;SDS011;6196;48.398;11.736;2022-07-10T06:57:09;9.33;;;8.50;;
12267;SDS011;6196;48.398;11.736;2022-07-10T06:59:36;9.30;;;8.50;;
12267;SDS011;6196;48.398;11.736;2022-07-10T07:02:03;9.33;;;8.53;;
12267;SDS011;6196;48.398;11.736;2022-07-10T07:04:30;9.07;;;8.27;;
12267;SDS011;6196;48.398;11.736;2022-07-10T07:06:58;9.67;;;8.77;;
12267;SDS011;6196;48.398;11.736;2022-07-10T07:09:24;9.60;;;8.60;;
12267;SDS011;6196;48.398;11.736;2022-07-10T07:11:51;8.30;;;7.50;;
12267;SDS011;6196;48.398;11.736;2022-07-10T07:14:18;7.87;;;7.23;;
12267;SDS011;6196;48.398;11.736;2022-07-10T07:16:45;7.30;;;6.67;;
12267;SDS011;6196;48.398;11.736;2022-07-10T07:19:23;7.30;;;6.60;;
12267;SDS011;6196;48.398;11.736;2022-07-10T07:22:09;7.23;;;5.87;;
12267;SDS011;6196;48.398;11.736;2022-07-10T07:24:55;6.00;;;5.00;;
12267;SDS011;6196;48.398;11.736;2022-07-10T07:27:22;6.00;;;5.47;;
12267;SDS011;6196;48.398;11.736;2022-07-10T07:29:49;5.87;;;4.50;;
12267;SDS011;6196;48.398;11.736;2022-07-10T07:32:15;5.37;;;4.87;;
12267;SDS011;6196;48.398;11.736;2022-07-10T07:34:42;4.80;;;4.40;;
12267;SDS011;6196;48.398;11.736;2022-07-10T07:37:09;5.60;;;5.10;;
12267;SDS011;6196;48.398;11.736;2022-07-10T07:39:36;4.93;;;4.43;;
12267;SDS011;6196;48.398;11.736;2022-07-10T07:42:04;6.23;;;4.50;;
12267;SDS011;6196;48.398;11.736;2022-07-10T07:44:31;9.27;;;3.93;;
12267;SDS011;6196;48.398;11.736;2022-07-10T07:46:57;4.00;;;3.70;;
12267;SDS011;6196;48.398;11.736;2022-07-10T07:49:24;4.83;;;3.50;;
12267;SDS011;6196;48.398;11.736;2022-07-10T07:51:51;4.10;;;3.00;;
12267;SDS011;6196;48.398;11.736;2022-07-10T07:54:18;5.80;;;3.47;;
12267;SDS011;6196;48.398;11.736;2022-07-10T07:56:45;4.93;;;3.40;;
12267;SDS011;6196;48.398;11.736;2022-07-10T07:59:12;3.23;;;2.87;;
12267;SDS011;6196;48.398;11.736;2022-07-10T08:01:39;6.20;;;2.77;;
12267;SDS011;6196;48.398;11.736;2022-07-10T08:04:05;2.70;;;2.13;;
12267;SDS011;6196;48.398;11.736;2022-07-10T08:06:35;3.83;;;2.30;;
12267;SDS011;6196;48.398;11.736;2022-07-10T08:09:03;3.47;;;1.90;;
12267;SDS011;6196;48.398;11.736;2022-07-10T08:11:30;5.57;;;2.20;;
12267;SDS011;6196;48.398;11.736;2022-07-10T08:13:57;6.33;;;2.17;;
12267;SDS011;6196;48.398;11.736;2022-07-10T08:16:24;7.77;;;2.43;;
12267;SDS011;6196;48.398;11.736;2022-07-10T08:18:51;4.53;;;1.70;;
12267;SDS011;6196;48.398;11.736;2022-07-10T08:21:18;3.50;;;1.87;;
12267;SDS011;6196;48.398;11.736;2022-07-10T08:23:45;3.13;;;1.87;;
12267;SDS011;6196;48.398;11.736;2022-07-10T08:26:12;4.67;;;1.90;;
12267;SDS011;6196;48.398;11.736;2022-07-10T08:28:39;3.40;;;1.87;;
12267;SDS011;6196;48.398;11.736;2022-07-10T08:31:06;3.30;;;2.03;;
12267;SDS011;6196;48.398;11.736;2022-07-10T08:33:40;2.47;;;1.90;;
12267;SDS011;6196;48.398;11.736;2022-07-10T08:36:08;3.67;;;1.87;;
12267;SDS011;6196;48.398;11.736;2022-07-10T08:38:55;2.33;;;1.70;;
12267;SDS011;6196;48.398;11.736;2022-07-10T08:41:24;3.57;;;2.00;;
12267;SDS011;6196;48.398;11.736;2022-07-10T08:43:52;3.47;;;1.93;;
12267;SDS011;6196;48.398;11.736;2022-07-10T08:46:20;2.83;;;1.90;;
12267;SDS011;6196;48.398;11.736;2022-07-10T08:48:47;4.47;;;2.00;;
12267;SDS011;6196;48.398;11.736;2022-07-10T08:51:23;5.13;;;2.10;;
12267;SDS011;6196;48.398;11.736;2022-07-10T08:54:04;3.27;;;1.77;;
12267;SDS011;6196;48.398;11.736;2022-07-10T08:56:32;3.17;;;1.80;;
12267;SDS011;6196;48.398;11.736;2022-07-10T08:59:01;2.77;;;1.57;;
12267;SDS011;6196;48.398;11.736;2022-07-10T09:01:32;3.43;;;1.80;;
12267;SDS011;6196;48.398;11.736;2022-07-10T09:04:00;4.33;;;1.77;;
12267;SDS011;6196;48.398;11.736;2022-07-10T09:06:27;2.57;;;1.53;;
12267;SDS011;6196;48.398;11.736;2022-07-10T09:08:58;3.47;;;1.70;;
12267;SDS011;6196;48.398;11.736;2022-07-10T09:11:31;2.77;;;1.60;;
12267;SDS011;6196;48.398;11.736;2022-07-10T09:14:03;3.70;;;1.70;;
12267;SDS011;6196;48.398;11.736;2022-07-10T09:16:37;4.07;;;1.60;;
12267;SDS011;6196;48.398;11.736;2022-07-10T09:19:17;2.70;;;1.40;;
12267;SDS011;6196;48.398;11.736;2022-07-10T09:22:04;4.67;;;1.57;;
12267;SDS011;6196;48.398;11.736;2022-07-10T09:24:36;2.23;;;1.30;;
12267;SDS011;6196;48.398;11.736;2022-07-10T09:27:12;2.73;;;1.30;;
12267;SDS011;6196;48.398;11.736;2022-07-10T09:29:48;2.77;;;1.40;;
12267;SDS011;6196;48.398;11.736;2022-07-10T09:32:21;2.43;;;1.30;;
12267;SDS011;6196;48.398;11.736;2022-07-10T09:34:48;3.33;;;1.40;;
12267;SDS011;6196;48.398;11.736;2022-07-10T09:37:40;3.30;;;1.67;;
12267;SDS011;6196;48.398;11.736;2022-07-10T09:40:08;1.57;;;1.20;;
12267;SDS011;6196;48.398;11.736;2022-07-10T09:42:42;2.47;;;1.40;;
12267;SDS011;6196;48.398;11.736;2022-07-10T09:47:37;2.70;;;1.23;;
12267;SDS011;6196;48.398;11.736;2022-07-10T09:50:19;4.23;;;1.50;;
12267;SDS011;6196;48.398;11.736;2022-07-10T09:53:06;2.97;;;1.63;;
12267;SDS011;6196;48.398;11.736;2022-07-10T09:55:38;3.77;;;1.67;;
12267;SDS011;6196;48.398;11.736;2022-07-10T09:58:06;3.50;;;1.43;;
12267;SDS011;6196;48.398;11.736;2022-07-10T10:00:38;1.63;;;1.20;;
12267;SDS011;6196;48.398;11.736;2022-07-10T10:03:08;1.67;;;1.40;;
12267;SDS011;6196;48.398;11.736;2022-07-10T10:11:26;1.90;;;1.33;;
12267;SDS011;6196;48.398;11.736;2022-07-10T10:13:58;2.63;;;1.33;;
12267;SDS011;6196;48.398;11.736;2022-07-10T10:16:26;2.10;;;1.30;;
12267;SDS011;6196;48.398;11.736;2022-07-10T10:19:02;3.27;;;1.40;;
12267;SDS011;6196;48.398;11.736;2022-07-10T10:21:48;2.47;;;1.50;;
12267;SDS011;6196;48.398;11.736;2022-07-10T10:24:15;2.53;;;1.40;;
12267;SDS011;6196;48.398;11.736;2022-07-10T10:26:44;2.37;;;1.40;;
12267;SDS011;6196;48.398;11.736;2022-07-10T10:29:11;2.03;;;1.30;;
12267;SDS011;6196;48.398;11.736;2022-07-10T10:31:39;3.03;;;1.67;;
12267;SDS011;6196;48.398;11.736;2022-07-10T10:34:07;2.10;;;1.37;;
12267;SDS011;6196;48.398;11.736;2022-07-10T10:39:26;4.07;;;1.67;;
12267;SDS011;6196;48.398;11.736;2022-07-10T10:41:53;3.70;;;1.40;;
12267;SDS011;6196;48.398;11.736;2022-07-10T10:44:21;1.80;;;1.20;;
12267;SDS011;6196;48.398;11.736;2022-07-10T10:49:17;3.23;;;1.20;;
12267;SDS011;6196;48.398;11.736;2022-07-10T10:54:26;2.03;;;1.00;;
12267;SDS011;6196;48.398;11.736;2022-07-10T10:57:11;2.40;;;1.13;;
12267;SDS011;6196;48.398;11.736;2022-07-10T10:59:50;3.13;;;1.20;;
12267;SDS011;6196;48.398;11.736;2022-07-10T11:02:29;1.67;;;1.17;;
12267;SDS011;6196;48.398;11.736;2022-07-10T11:07:55;2.67;;;0.87;;
12267;SDS011;6196;48.398;11.736;2022-07-10T11:10:37;3.43;;;0.90;;
12267;SDS011;6196;48.398;11.736;2022-07-10T11:13:17;4.70;;;1.00;;
12267;SDS011;6196;48.398;11.736;2022-07-10T11:15:45;2.03;;;0.90;;
12267;SDS011;6196;48.398;11.736;2022-07-10T11:18:20;4.17;;;1.40;;
12267;SDS011;6196;48.398;11.736;2022-07-10T11:20:57;3.13;;;0.90;;
12267;SDS011;6196;48.398;11.736;2022-07-10T11:23:34;2.00;;;0.93;;
12267;SDS011;6196;48.398;11.736;2022-07-10T11:29:05;2.17;;;0.90;;
12267;SDS011;6196;48.398;11.736;2022-07-10T11:31:32;8.23;;;1.10;;
12267;SDS011;6196;48.398;11.736;2022-07-10T11:34:11;3.47;;;1.03;;
12267;SDS011;6196;48.398;11.736;2022-07-10T11:36:38;1.93;;;1.00;;
12267;SDS011;6196;48.398;11.736;2022-07-10T11:39:07;1.30;;;1.00;;
12267;SDS011;6196;48.398;11.736;2022-07-10T11:41:44;1.90;;;0.93;;
12267;SDS011;6196;48.398;11.736;2022-07-10T11:44:15;2.50;;;1.00;;
12267;SDS011;6196;48.398;11.736;2022-07-10T11:46:44;1.83;;;0.80;;
12267;SDS011;6196;48.398;11.736;2022-07-10T11:49:15;1.77;;;0.90;;
12267;SDS011;6196;48.398;11.736;2022-07-10T11:51:44;1.30;;;0.90;;
12267;SDS011;6196;48.398;11.736;2022-07-10T11:54:15;2.73;;;1.20;;
12267;SDS011;6196;48.398;11.736;2022-07-10T11:56:48;2.93;;;1.00;;
12267;SDS011;6196;48.398;11.736;2022-07-10T11:59:23;1.80;;;0.90;;
12267;SDS011;6196;48.398;11.736;2022-07-10T12:01:54;1.50;;;1.00;;
12267;SDS011;6196;48.398;11.736;2022-07-10T12:04:23;2.37;;;1.00;;
12267;SDS011;6196;48.398;11.736;2022-07-10T12:06:53;2.00;;;0.90;;
12267;SDS011;6196;48.398;11.736;2022-07-10T12:09:20;4.83;;;1.00;;
12267;SDS011;6196;48.398;11.736;2022-07-10T12:12:05;4.03;;;1.27;;
12267;SDS011;6196;48.398;11.736;2022-07-10T12:14:35;1.60;;;1.00;;
12267;SDS011;6196;48.398;11.736;2022-07-10T12:17:02;1.93;;;1.00;;
12267;SDS011;6196;48.398;11.736;2022-07-10T12:19:37;1.93;;;1.07;;
12267;SDS011;6196;48.398;11.736;2022-07-10T12:22:05;2.93;;;1.10;;
12267;SDS011;6196;48.398;11.736;2022-07-10T12:24:33;1.03;;;0.73;;
12267;SDS011;6196;48.398;11.736;2022-07-10T12:27:01;1.93;;;0.80;;
12267;SDS011;6196;48.398;11.736;2022-07-10T12:29:29;2.57;;;1.03;;
12267;SDS011;6196;48.398;11.736;2022-07-10T12:32:00;1.87;;;1.13;;
12267;SDS011;6196;48.398;11.736;2022-07-10T12:37:10;3.03;;;0.90;;
12267;SDS011;6196;48.398;11.736;2022-07-10T12:39:47;1.57;;;0.90;;
12267;SDS011;6196;48.398;11.736;2022-07-10T12:42:31;5.47;;;0.90;;
12267;SDS011;6196;48.398;11.736;2022-07-10T12:45:11;4.37;;;0.90;;
12267;SDS011;6196;48.398;11.736;2022-07-10T12:47:43;2.73;;;1.00;;
12267;SDS011;6196;48.398;11.736;2022-07-10T12:50:12;1.47;;;1.00;;
12267;SDS011;6196;48.398;11.736;2022-07-10T12:52:40;2.53;;;0.97;;
12267;SDS011;6196;48.398;11.736;2022-07-10T12:55:08;2.00;;;0.90;;
12267;SDS011;6196;48.398;11.736;2022-07-10T13:02:50;2.90;;;0.80;;
12267;SDS011;6196;48.398;11.736;2022-07-10T13:05:41;3.57;;;0.90;;
12267;SDS011;6196;48.398;11.736;2022-07-10T13:08:13;1.67;;;0.70;;
12267;SDS011;6196;48.398;11.736;2022-07-10T13:10:49;2.70;;;0.83;;
12267;SDS011;6196;48.398;11.736;2022-07-10T13:13:17;3.67;;;0.80;;
12267;SDS011;6196;48.398;11.736;2022-07-10T13:15:44;3.03;;;0.67;;
12267;SDS011;6196;48.398;11.736;2022-07-10T13:18:16;3.80;;;1.13;;
12267;SDS011;6196;48.398;11.736;2022-07-10T13:20:47;2.03;;;0.97;;
12267;SDS011;6196;48.398;11.736;2022-07-10T13:23:20;0.80;;;0.60;;
12267;SDS011;6196;48.398;11.736;2022-07-10T13:25:49;1.43;;;0.83;;
12267;SDS011;6196;48.398;11.736;2022-07-10T13:28:16;2.77;;;1.30;;
12267;SDS011;6196;48.398;11.736;2022-07-10T13:30:43;2.37;;;0.77;;
12267;SDS011;6196;48.398;11.736;2022-07-10T13:33:11;3.23;;;0.80;;
12267;SDS011;6196;48.398;11.736;2022-07-10T13:35:38;1.63;;;0.93;;
12267;SDS011;6196;48.398;11.736;2022-07-10T13:38:06;3.30;;;0.90;;
12267;SDS011;6196;48.398;11.736;2022-07-10T13:40:38;1.57;;;0.80;;
12267;SDS011;6196;48.398;11.736;2022-07-10T13:43:05;2.33;;;0.70;;
12267;SDS011;6196;48.398;11.736;2022-07-10T13:45:34;2.43;;;0.87;;
12267;SDS011;6196;48.398;11.736;2022-07-10T13:48:20;2.50;;;0.90;;
12267;SDS011;6196;48.398;11.736;2022-07-10T13:50:47;2.70;;;0.80;;
12267;SDS011;6196;48.398;11.736;2022-07-10T13:53:14;2.73;;;0.70;;
12267;SDS011;6196;48.398;11.736;2022-07-10T13:55:42;1.83;;;0.90;;
12267;SDS011;6196;48.398;11.736;2022-07-10T13:58:10;1.27;;;0.90;;
12267;SDS011;6196;48.398;11.736;2022-07-10T14:00:38;1.87;;;0.70;;
12267;SDS011;6196;48.398;11.736;2022-07-10T14:03:05;2.37;;;0.60;;
12267;SDS011;6196;48.398;11.736;2022-07-10T14:05:33;1.93;;;0.70;;
12267;SDS011;6196;48.398;11.736;2022-07-10T14:08:00;1.60;;;0.70;;
12267;SDS011;6196;48.398;11.736;2022-07-10T14:10:27;1.70;;;0.73;;
12267;SDS011;6196;48.398;11.736;2022-07-10T14:12:55;2.40;;;0.70;;
12267;SDS011;6196;48.398;11.736;2022-07-10T14:15:22;2.33;;;0.70;;
12267;SDS011;6196;48.398;11.736;2022-07-10T14:17:49;2.30;;;0.90;;
12267;SDS011;6196;48.398;11.736;2022-07-10T14:20:17;3.00;;;1.30;;
12267;SDS011;6196;48.398;11.736;2022-07-10T14:22:44;2.10;;;0.73;;
12267;SDS011;6196;48.398;11.736;2022-07-10T14:25:13;1.27;;;0.60;;
12267;SDS011;6196;48.398;11.736;2022-07-10T14:27:40;2.43;;;0.90;;
12267;SDS011;6196;48.398;11.736;2022-07-10T14:30:07;1.60;;;0.70;;
12267;SDS011;6196;48.398;11.736;2022-07-10T14:32:35;2.67;;;0.80;;
12267;SDS011;6196;48.398;11.736;2022-07-10T14:35:02;1.33;;;0.60;;
12267;SDS011;6196;48.398;11.736;2022-07-10T14:37:29;0.70;;;0.60;;
12267;SDS011;6196;48.398;11.736;2022-07-10T14:39:56;1.73;;;0.80;;
12267;SDS011;6196;48.398;11.736;2022-07-10T14:42:24;1.07;;;0.53;;
12267;SDS011;6196;48.398;11.736;2022-07-10T14:44:51;3.60;;;0.70;;
12267;SDS011;6196;48.398;11.736;2022-07-10T14:47:18;2.57;;;0.90;;
12267;SDS011;6196;48.398;11.736;2022-07-10T14:49:45;2.20;;;0.73;;
12267;SDS011;6196;48.398;11.736;2022-07-10T14:52:12;1.70;;;0.67;;
12267;SDS011;6196;48.398;11.736;2022-07-10T14:54:40;1.73;;;0.50;;
12267;SDS011;6196;48.398;11.736;2022-07-10T14:57:07;3.60;;;0.70;;
12267;SDS011;6196;48.398;11.736;2022-07-10T14:59:33;1.53;;;0.70;;
12267;SDS011;6196;48.398;11.736;2022-07-10T15:02:00;1.47;;;0.67;;
12267;SDS011;6196;48.398;11.736;2022-07-10T15:04:27;1.67;;;0.70;;
12267;SDS011;6196;48.398;11.736;2022-07-10T15:06:54;1.43;;;0.60;;
12267;SDS011;6196;48.398;11.736;2022-07-10T15:09:21;1.83;;;0.80;;
12267;SDS011;6196;48.398;11.736;2022-07-10T15:11:48;2.43;;;0.83;;
12267;SDS011;6196;48.398;11.736;2022-07-10T15:14:15;1.67;;;0.67;;
12267;SDS011;6196;48.398;11.736;2022-07-10T15:16:42;1.20;;;0.70;;
12267;SDS011;6196;48.398;11.736;2022-07-10T15:19:09;1.70;;;0.80;;
12267;SDS011;6196;48.398;11.736;2022-07-10T15:21:37;0.90;;;0.50;;
12267;SDS011;6196;48.398;11.736;2022-07-10T15:24:04;1.50;;;0.70;;
12267;SDS011;6196;48.398;11.736;2022-07-10T15:26:31;2.10;;;0.60;;